KRTN/RTN METAR and TAF weather

Enter ICAO airport designator
Station Type Date Time Source
KRTN METAR 2022/01/29 12:53 UTC NOAA

KRTN 291253Z AUTO 06008KT 10SM CLR M12/M17 A3027 RMK AO2 SLP289 T11171167


Station Type Date Time Source
KRTN Decoded METAR 2022/01/29 12:53 UTC NOAA

Raton, Raton Municipal \ Crews Field Airport, NM, United States (KRTN) 36-44-31N 104-39-28W 1939M
Jan 29, 2022 - 07:53 AM EST / 2022.01.29 1253 UTC
Wind: from the ENE (060 degrees) at 9 MPH (8 KT):0
Visibility: 10 mile(s):0
Sky conditions: clear
Temperature: 10.9 F (-11.7 C)
Windchill: -2 F (-19 C):1
Dew Point: 1.9 F (-16.7 C)
Relative Humidity: 66%
Pressure (altimeter): 30.27 in. Hg (1025 hPa)
ob: KRTN 291253Z AUTO 06008KT 10SM CLR M12/M17 A3027 RMK AO2 SLP289 T11171167
cycle: 13

Station Type Date Time Source
KRTN TAF UTC NOAA

Error!

Example: see airport list